createdAt,value
2022-12-18T00:02:08.720Z,97.06
2022-12-18T00:04:46.750Z,97.52
2022-12-18T00:08:09.383Z,97.63
2022-12-18T00:11:07.084Z,97.31
2022-12-18T00:13:47.966Z,97.25
2022-12-18T00:20:05.425Z,97.90
2022-12-18T00:22:43.642Z,97.87
2022-12-18T00:25:24.808Z,97.50
2022-12-18T00:28:13.220Z,97.99
2022-12-18T00:31:22.660Z,97.27
2022-12-18T00:36:59.456Z,97.17
2022-12-18T00:42:56.015Z,97.25
2022-12-18T00:45:33.461Z,97.50
2022-12-18T00:48:17.433Z,97.77
2022-12-18T00:51:27.861Z,97.60
2022-12-18T00:53:58.696Z,97.30
2022-12-18T01:00:00.575Z,97.14
2022-12-18T01:02:37.062Z,97.02
2022-12-18T01:05:09.920Z,97.07
2022-12-18T01:07:41.379Z,97.95
2022-12-18T01:10:37.013Z,97.12
2022-12-18T01:13:26.772Z,97.55
2022-12-18T01:18:57.164Z,97.54
2022-12-18T01:21:29.133Z,97.66
2022-12-18T01:27:10.688Z,97.28
2022-12-18T01:29:55.780Z,97.59
2022-12-18T01:32:39.552Z,96.64
2022-12-18T01:35:09.782Z,96.51
2022-12-18T01:37:39.399Z,96.95
2022-12-18T01:40:20.106Z,96.50
2022-12-18T01:43:03.469Z,96.52
2022-12-18T01:45:32.287Z,96.14
2022-12-18T01:48:08.954Z,96.61
2022-12-18T01:50:41.132Z,96.18
2022-12-18T01:53:25.810Z,96.20
2022-12-18T01:58:48.458Z,95.98
2022-12-18T02:01:17.271Z,95.96
2022-12-18T02:03:47.384Z,96.12
2022-12-18T02:06:30.687Z,95.58
2022-12-18T02:09:39.826Z,95.99
2022-12-18T02:12:18.269Z,95.91
2022-12-18T02:15:00.037Z,96.59
2022-12-18T02:17:37.802Z,96.00
2022-12-18T02:20:22.720Z,96.69
2022-12-18T02:23:17.577Z,96.62
2022-12-18T02:26:22.407Z,96.54
2022-12-18T02:28:55.929Z,96.19
2022-12-18T02:31:28.290Z,96.76
2022-12-18T02:33:57.588Z,96.96
2022-12-18T02:36:40.488Z,96.23
2022-12-18T02:39:13.292Z,96.02
2022-12-18T02:41:53.937Z,95.90
2022-12-18T02:44:27.681Z,96.57
2022-12-18T02:50:00.445Z,96.12
2022-12-18T02:52:42.646Z,96.00
2022-12-18T02:55:28.587Z,95.88
2022-12-18T02:58:09.425Z,96.59
2022-12-18T03:00:42.635Z,96.08
2022-12-18T03:03:18.603Z,96.54
2022-12-18T03:06:01.558Z,96.21
2022-12-18T03:08:42.064Z,96.23
2022-12-18T03:11:17.194Z,96.22
2022-12-18T03:13:50.482Z,96.48
2022-12-18T03:16:24.753Z,96.21
2022-12-18T03:19:06.025Z,96.14
2022-12-18T03:21:41.286Z,96.04
2022-12-18T03:24:16.936Z,96.06
2022-12-18T03:26:51.657Z,96.19
2022-12-18T03:29:26.247Z,96.21
2022-12-18T03:32:06.599Z,95.74
2022-12-18T03:34:39.745Z,96.08
2022-12-18T03:37:08.030Z,95.74
2022-12-18T03:39:36.378Z,95.34
2022-12-18T03:42:11.566Z,95.67
2022-12-18T03:44:46.175Z,95.87
2022-12-18T03:47:20.995Z,95.72
2022-12-18T03:49:52.649Z,95.72
2022-12-18T03:52:25.275Z,95.96
2022-12-18T03:54:58.878Z,96.04
2022-12-18T03:57:32.013Z,95.57
2022-12-18T04:00:09.184Z,95.60
2022-12-18T04:02:42.192Z,95.96
2022-12-18T04:05:11.996Z,95.76
2022-12-18T04:07:40.321Z,96.25
2022-12-18T04:10:10.452Z,95.74
2022-12-18T04:12:38.674Z,95.29
2022-12-18T04:15:12.254Z,95.70
2022-12-18T04:17:39.857Z,96.23
2022-12-18T04:20:10.425Z,95.76
2022-12-18T04:22:37.738Z,95.66
2022-12-18T04:25:05.498Z,95.75
2022-12-18T04:27:35.512Z,95.68
2022-12-18T04:30:05.577Z,95.62
2022-12-18T04:32:37.118Z,95.81
2022-12-18T04:35:06.311Z,95.81
2022-12-18T04:37:37.549Z,95.35
2022-12-18T04:40:05.349Z,95.42
2022-12-18T04:42:35.328Z,95.28
2022-12-18T04:45:02.397Z,95.61
2022-12-18T04:47:42.067Z,95.46
2022-12-18T04:50:09.702Z,95.45
2022-12-18T04:52:42.889Z,95.42
2022-12-18T04:55:10.038Z,95.45
2022-12-18T04:57:38.507Z,95.24
2022-12-18T05:00:06.660Z,94.92
2022-12-18T05:02:38.390Z,94.88
2022-12-18T05:05:06.802Z,94.72
2022-12-18T05:07:35.221Z,94.15
2022-12-18T05:10:04.465Z,94.54
2022-12-18T05:12:33.267Z,94.61
2022-12-18T05:15:00.245Z,94.25
2022-12-18T05:17:27.082Z,94.18
2022-12-18T05:19:55.592Z,94.33
2022-12-18T05:22:22.892Z,94.14
2022-12-18T05:24:50.247Z,94.34
2022-12-18T05:27:17.293Z,94.00
2022-12-18T05:29:44.415Z,94.57
2022-12-18T05:32:13.476Z,94.01
2022-12-18T05:34:40.355Z,94.41
2022-12-18T05:37:10.666Z,94.31
2022-12-18T05:39:39.296Z,93.97
2022-12-18T05:42:09.736Z,93.70
2022-12-18T05:44:36.743Z,94.25
2022-12-18T05:47:03.947Z,94.49
2022-12-18T05:49:31.292Z,93.95
2022-12-18T05:51:58.069Z,94.19
2022-12-18T05:54:28.108Z,94.39
2022-12-18T05:56:55.233Z,93.89
2022-12-18T05:59:22.020Z,93.54
2022-12-18T06:01:49.425Z,94.12
2022-12-18T06:04:16.377Z,94.07
2022-12-18T06:06:43.765Z,93.41
2022-12-18T06:09:17.389Z,93.83
2022-12-18T06:11:45.694Z,93.29
2022-12-18T06:14:12.677Z,93.54
2022-12-18T06:16:39.641Z,93.41
2022-12-18T06:19:14.800Z,93.93
2022-12-18T06:21:41.594Z,93.62
2022-12-18T06:24:08.725Z,93.71
2022-12-18T06:26:38.453Z,93.38
2022-12-18T06:29:07.032Z,93.33
2022-12-18T06:31:43.592Z,92.90
2022-12-18T06:34:11.734Z,93.16
2022-12-18T06:36:38.508Z,92.96
2022-12-18T06:39:08.200Z,93.11
2022-12-18T06:41:36.231Z,93.66
2022-12-18T06:44:09.847Z,93.25
2022-12-18T06:46:37.994Z,93.13
2022-12-18T06:49:06.663Z,93.12
2022-12-18T06:51:33.515Z,92.90
2022-12-18T06:54:03.533Z,92.90
2022-12-18T06:56:30.703Z,92.59
2022-12-18T06:58:57.895Z,93.06
2022-12-18T07:01:26.380Z,93.18
2022-12-18T07:03:54.352Z,92.74
2022-12-18T07:06:26.168Z,92.82
2022-12-18T07:08:54.443Z,92.97
2022-12-18T07:11:22.898Z,92.44
2022-12-18T07:13:54.570Z,92.91
2022-12-18T07:16:25.734Z,92.31
2022-12-18T07:18:57.484Z,92.85
2022-12-18T07:21:25.679Z,92.55
2022-12-18T07:23:52.994Z,92.80
2022-12-18T07:26:24.747Z,92.93
2022-12-18T07:28:55.858Z,92.58
2022-12-18T07:31:23.047Z,93.15
2022-12-18T07:33:51.269Z,92.38
2022-12-18T07:36:20.622Z,93.15
2022-12-18T07:38:51.154Z,92.93
2022-12-18T07:41:18.508Z,92.55
2022-12-18T07:43:46.008Z,93.02
2022-12-18T07:46:16.347Z,93.02
2022-12-18T07:48:43.672Z,92.46
2022-12-18T07:51:16.675Z,92.74
2022-12-18T07:53:45.266Z,92.34
2022-12-18T07:56:31.452Z,92.88
2022-12-18T07:58:59.074Z,92.86
2022-12-18T08:01:35.078Z,92.97
2022-12-18T08:04:02.421Z,92.86
2022-12-18T08:06:36.779Z,93.09
2022-12-18T08:09:05.973Z,93.18
2022-12-18T08:11:36.857Z,92.54
2022-12-18T08:14:06.402Z,92.65
2022-12-18T08:16:41.883Z,92.57
2022-12-18T08:22:29.804Z,93.16
2022-12-18T08:25:35.183Z,92.54
2022-12-18T08:28:14.401Z,93.01
2022-12-18T08:30:48.362Z,92.61
2022-12-18T08:36:33.428Z,92.78
2022-12-18T08:39:00.511Z,92.37
2022-12-18T08:41:31.386Z,91.89
2022-12-18T08:44:01.329Z,92.90
2022-12-18T08:46:38.736Z,92.13
2022-12-18T08:49:07.526Z,92.66
2022-12-18T08:51:36.704Z,92.01
2022-12-18T08:54:04.232Z,92.07
2022-12-18T08:56:35.235Z,92.19
2022-12-18T08:59:03.344Z,91.86
2022-12-18T09:01:31.037Z,92.79
2022-12-18T09:03:58.788Z,92.75
2022-12-18T09:06:26.734Z,92.16
2022-12-18T09:08:53.894Z,92.76
2022-12-18T09:11:23.857Z,92.58
2022-12-18T09:13:53.198Z,92.06
2022-12-18T09:16:22.524Z,91.36
2022-12-18T09:18:51.805Z,92.00
2022-12-18T09:21:20.925Z,91.59
2022-12-18T09:23:50.826Z,91.93
2022-12-18T09:26:17.890Z,92.27
2022-12-18T09:28:46.890Z,91.51
2022-12-18T09:31:15.298Z,91.44
2022-12-18T09:33:42.464Z,91.93
2022-12-18T09:36:12.426Z,91.84
2022-12-18T09:38:39.898Z,90.20
2022-12-18T09:41:27.112Z,91.01
2022-12-18T09:43:58.498Z,90.70
2022-12-18T09:46:31.569Z,91.12
2022-12-18T09:49:03.479Z,90.40
2022-12-18T09:51:36.506Z,91.38
2022-12-18T09:54:08.540Z,90.87
2022-12-18T09:56:38.580Z,90.04
2022-12-18T09:59:06.095Z,89.83
2022-12-18T10:01:41.740Z,89.95
2022-12-18T10:04:11.325Z,89.46
2022-12-18T10:06:43.991Z,89.53
2022-12-18T10:09:21.757Z,89.00
2022-12-18T10:11:55.883Z,89.57
2022-12-18T10:14:30.524Z,89.60
2022-12-18T10:17:03.774Z,89.44
2022-12-18T10:19:40.657Z,89.05
2022-12-18T10:22:16.892Z,89.33
2022-12-18T10:24:51.503Z,87.04
2022-12-18T10:27:22.895Z,87.64
2022-12-18T10:29:49.919Z,88.66
2022-12-18T10:32:20.845Z,87.97
2022-12-18T10:34:47.855Z,86.90
2022-12-18T10:37:18.488Z,87.38
2022-12-18T10:39:45.872Z,87.33
2022-12-18T10:42:17.927Z,87.86
2022-12-18T10:44:45.004Z,88.64
2022-12-18T10:47:17.337Z,88.21
2022-12-18T10:49:50.564Z,89.19
2022-12-18T10:52:20.583Z,88.55
2022-12-18T10:54:50.882Z,88.35
2022-12-18T10:57:36.233Z,88.46
2022-12-18T11:00:22.901Z,88.34
2022-12-18T11:02:50.312Z,89.31
2022-12-18T11:05:30.390Z,88.15
2022-12-18T11:07:59.044Z,88.68
2022-12-18T11:10:30.510Z,88.03
2022-12-18T11:13:09.466Z,87.93
2022-12-18T11:15:36.218Z,88.01
2022-12-18T11:18:03.295Z,87.00
2022-12-18T11:20:36.288Z,87.39
2022-12-18T11:23:05.975Z,87.63
2022-12-18T11:25:35.691Z,86.80
2022-12-18T11:28:06.823Z,87.16
2022-12-18T11:30:35.625Z,87.44
2022-12-18T11:33:08.453Z,86.82
2022-12-18T11:35:51.236Z,86.64
2022-12-18T11:38:23.423Z,86.17
2022-12-18T11:40:56.112Z,86.61
2022-12-18T11:43:29.817Z,86.25
2022-12-18T11:46:03.611Z,86.37
2022-12-18T11:48:34.987Z,86.17
2022-12-18T11:51:09.486Z,85.73
2022-12-18T11:53:36.232Z,86.48
2022-12-18T11:56:14.111Z,86.32
2022-12-18T11:58:48.471Z,85.45
2022-12-18T12:01:41.979Z,85.51
2022-12-18T12:04:29.720Z,84.99
2022-12-18T12:07:07.981Z,85.27
2022-12-18T12:09:40.506Z,85.24
2022-12-18T12:15:35.266Z,85.11
2022-12-18T12:18:11.577Z,85.56
2022-12-18T12:20:50.726Z,84.82
2022-12-18T12:23:30.013Z,84.27
2022-12-18T12:26:04.218Z,85.41
2022-12-18T12:28:50.329Z,84.66
2022-12-18T12:31:33.155Z,84.19
2022-12-18T12:34:09.094Z,85.10
2022-12-18T12:36:42.392Z,85.07
2022-12-18T12:39:16.888Z,85.19
2022-12-18T12:41:49.800Z,84.25
2022-12-18T12:44:21.398Z,82.81
2022-12-18T12:46:51.237Z,83.87
2022-12-18T12:49:22.191Z,84.22
2022-12-18T12:51:58.100Z,84.23
2022-12-18T12:54:38.885Z,84.58
2022-12-18T12:57:28.831Z,83.33
2022-12-18T13:00:44.704Z,83.85
2022-12-18T13:03:29.260Z,84.12
2022-12-18T13:06:10.388Z,83.41
2022-12-18T13:09:00.260Z,82.27
2022-12-18T13:11:43.053Z,82.77
2022-12-18T13:14:30.400Z,82.82
2022-12-18T13:17:44.738Z,81.90
2022-12-18T13:20:19.954Z,82.53
2022-12-18T13:23:41.826Z,82.17
2022-12-18T13:26:41.391Z,82.92
2022-12-18T13:29:49.975Z,82.79
2022-12-18T13:35:40.312Z,82.40
2022-12-18T13:38:22.111Z,82.96
2022-12-18T13:41:23.014Z,80.71
2022-12-18T13:43:55.352Z,82.08
2022-12-18T13:46:29.302Z,82.60
2022-12-18T13:52:44.626Z,81.52
2022-12-18T13:55:25.153Z,81.63
2022-12-18T14:01:33.861Z,81.72
2022-12-18T14:04:38.149Z,82.23
2022-12-18T14:07:49.222Z,81.83
2022-12-18T14:11:06.419Z,81.56
2022-12-18T14:35:09.816Z,81.59
2022-12-18T14:41:22.872Z,82.01
2022-12-18T14:47:39.083Z,81.68
2022-12-18T14:50:17.581Z,81.49
2022-12-18T14:52:47.505Z,81.98
2022-12-18T14:55:17.118Z,81.60
2022-12-18T14:57:51.186Z,81.43
2022-12-18T15:00:22.276Z,82.04
2022-12-18T15:02:53.920Z,81.62
2022-12-18T15:05:25.813Z,81.52
2022-12-18T15:07:54.160Z,81.74
2022-12-18T15:10:22.482Z,82.12
2022-12-18T15:12:51.004Z,81.33
2022-12-18T15:15:47.566Z,81.83
2022-12-18T15:18:16.688Z,82.03
2022-12-18T15:20:45.752Z,81.86
2022-12-18T15:23:19.652Z,82.17
2022-12-18T15:25:47.458Z,81.39
2022-12-18T15:28:22.888Z,80.48
2022-12-18T15:31:02.813Z,81.55
2022-12-18T15:33:33.044Z,81.43
2022-12-18T15:36:00.508Z,82.18
2022-12-18T15:38:28.120Z,81.64
2022-12-18T15:40:55.189Z,81.91
2022-12-18T15:43:23.658Z,81.19
2022-12-18T15:45:51.012Z,81.33
2022-12-18T15:48:22.765Z,81.49
2022-12-18T15:50:50.919Z,81.46
2022-12-18T15:53:18.443Z,81.62
2022-12-18T15:55:46.635Z,81.63
2022-12-18T16:01:24.106Z,81.77
2022-12-18T16:08:01.021Z,81.69
2022-12-18T16:11:23.006Z,81.88
2022-12-18T16:14:18.369Z,81.48
2022-12-18T16:16:47.384Z,81.73
2022-12-18T16:19:14.119Z,82.27
2022-12-18T16:21:42.771Z,82.25
2022-12-18T16:24:15.784Z,81.63
2022-12-18T16:26:42.930Z,81.83
2022-12-18T16:29:10.034Z,81.79
2022-12-18T16:31:37.694Z,81.81
2022-12-18T16:34:22.834Z,81.72
2022-12-18T16:36:54.040Z,81.45
2022-12-18T16:39:22.998Z,81.36
2022-12-18T16:41:54.100Z,82.13
2022-12-18T16:44:25.740Z,81.15
2022-12-18T16:46:54.137Z,81.31
2022-12-18T16:49:21.126Z,81.29
2022-12-18T16:51:48.117Z,81.87
2022-12-18T16:54:19.936Z,81.25
2022-12-18T16:56:48.766Z,80.89
2022-12-18T16:59:19.308Z,81.38
2022-12-18T17:01:46.859Z,80.68
2022-12-18T17:04:14.454Z,81.55
2022-12-18T17:06:49.853Z,81.35
2022-12-18T17:09:16.891Z,81.36
2022-12-18T17:11:44.060Z,80.84
2022-12-18T17:14:22.150Z,80.95
2022-12-18T17:19:33.491Z,81.54
2022-12-18T17:22:02.304Z,81.37
2022-12-18T17:24:34.828Z,81.34
2022-12-18T17:27:06.022Z,81.01
2022-12-18T17:29:37.642Z,80.73
2022-12-18T17:32:08.802Z,80.92
2022-12-18T17:34:40.888Z,80.98
2022-12-18T17:37:08.022Z,80.88
2022-12-18T17:39:43.451Z,80.99
2022-12-18T17:42:10.907Z,80.67
2022-12-18T17:44:52.563Z,81.02
2022-12-18T17:47:19.640Z,81.18
2022-12-18T17:49:46.537Z,80.43
2022-12-18T17:52:16.290Z,80.83
2022-12-18T17:54:55.234Z,80.46
2022-12-18T17:57:36.966Z,80.45
2022-12-18T18:00:08.174Z,80.62
2022-12-18T18:02:35.050Z,79.72
2022-12-18T18:05:06.061Z,80.24
2022-12-18T18:07:50.559Z,80.43
2022-12-18T18:10:22.222Z,79.92
2022-12-18T18:12:50.700Z,80.34
2022-12-18T18:15:28.197Z,80.18
2022-12-18T18:18:03.537Z,80.06
2022-12-18T18:20:42.775Z,79.97
2022-12-18T18:23:10.044Z,80.40
2022-12-18T18:25:37.199Z,80.17
2022-12-18T18:28:08.609Z,80.22
2022-12-18T18:30:38.459Z,79.63
2022-12-18T18:33:13.724Z,79.69
2022-12-18T18:35:54.413Z,79.77
2022-12-18T18:38:24.313Z,79.64
2022-12-18T18:41:10.603Z,78.63
2022-12-18T18:49:37.921Z,78.92
2022-12-18T18:52:09.525Z,79.26
2022-12-18T18:54:51.927Z,79.19
2022-12-18T18:57:30.114Z,79.65
2022-12-18T19:00:01.434Z,79.49
2022-12-18T19:05:52.567Z,79.03
2022-12-18T19:08:51.450Z,78.33
2022-12-18T19:15:33.643Z,78.00
2022-12-18T19:18:33.575Z,78.63
2022-12-18T19:21:17.598Z,78.70
2022-12-18T19:23:55.991Z,78.20
2022-12-18T19:26:41.378Z,78.60
2022-12-18T19:29:24.238Z,78.88
2022-12-18T19:31:58.811Z,78.81
2022-12-18T19:34:34.688Z,78.50
2022-12-18T19:37:14.200Z,78.65
2022-12-18T19:39:47.315Z,78.44
2022-12-18T19:42:14.488Z,78.79
2022-12-18T19:44:45.803Z,77.55
2022-12-18T19:47:12.777Z,78.87
2022-12-18T19:49:45.952Z,78.10
2022-12-18T19:52:21.651Z,77.90
2022-12-18T19:55:14.578Z,78.24
2022-12-18T19:57:43.124Z,78.92
2022-12-18T20:00:16.914Z,78.89
2022-12-18T20:02:48.758Z,78.65
2022-12-18T20:05:33.354Z,78.38
2022-12-18T20:08:16.162Z,78.67
2022-12-18T20:10:49.462Z,78.53
2022-12-18T20:13:36.793Z,78.42
2022-12-18T20:18:50.566Z,78.40
2022-12-18T20:21:28.179Z,78.10
2022-12-18T20:23:55.181Z,78.83
2022-12-18T20:26:30.035Z,79.02
2022-12-18T20:29:05.099Z,78.64
2022-12-18T20:31:32.221Z,78.60
2022-12-18T20:34:06.045Z,78.59
2022-12-18T20:36:39.803Z,77.34
2022-12-18T20:39:17.791Z,77.73
2022-12-18T20:41:48.863Z,78.40
2022-12-18T20:44:22.699Z,78.34
2022-12-18T20:47:07.446Z,78.31
2022-12-18T20:49:39.548Z,78.05
2022-12-18T20:52:29.435Z,76.88
2022-12-18T20:55:00.345Z,78.38
2022-12-18T20:57:30.687Z,78.13
2022-12-18T21:00:04.797Z,77.66
2022-12-18T21:02:32.116Z,77.41
2022-12-18T21:04:59.145Z,78.20
2022-12-18T21:07:27.807Z,77.41
2022-12-18T21:09:56.519Z,77.34
2022-12-18T21:12:26.152Z,76.99
2022-12-18T21:15:01.466Z,77.59
2022-12-18T21:17:41.118Z,77.56
2022-12-18T21:20:18.549Z,77.51
2022-12-18T21:22:54.074Z,77.31
2022-12-18T21:25:24.268Z,76.80
2022-12-18T21:27:51.044Z,77.34
2022-12-18T21:30:17.838Z,77.56
2022-12-18T21:32:45.819Z,77.56
2022-12-18T21:35:14.419Z,77.73
2022-12-18T21:37:47.467Z,77.75
2022-12-18T21:40:15.783Z,77.89
2022-12-18T21:42:45.576Z,78.24
2022-12-18T21:45:12.679Z,78.45
2022-12-18T21:47:48.052Z,79.30
2022-12-18T21:50:17.570Z,79.78
2022-12-18T21:52:50.279Z,79.89
2022-12-18T21:55:23.264Z,80.42
2022-12-18T21:58:11.091Z,80.12
2022-12-18T22:00:48.564Z,81.21
2022-12-18T22:03:18.646Z,81.34
2022-12-18T22:06:00.648Z,81.51
2022-12-18T22:08:43.582Z,82.26
2022-12-18T22:11:17.027Z,82.59
2022-12-18T22:13:47.518Z,82.68
2022-12-18T22:16:18.076Z,82.92
2022-12-18T22:18:45.119Z,83.87
2022-12-18T22:21:29.624Z,84.10
2022-12-18T22:24:00.917Z,84.42
2022-12-18T22:26:36.504Z,84.64
2022-12-18T22:29:16.172Z,85.12
2022-12-18T22:31:50.772Z,85.29
2022-12-18T22:34:26.168Z,85.55
2022-12-18T22:36:55.382Z,86.42
2022-12-18T22:39:27.000Z,85.82
2022-12-18T22:42:02.990Z,86.14
2022-12-18T22:44:47.633Z,86.22
2022-12-18T22:47:27.995Z,86.87
2022-12-18T22:49:57.102Z,86.56
2022-12-18T22:52:25.897Z,86.49
2022-12-18T22:55:00.429Z,86.97
2022-12-18T22:57:38.175Z,87.33
2022-12-18T23:00:15.743Z,87.71
2022-12-18T23:03:00.737Z,87.42
2022-12-18T23:05:35.386Z,88.43
2022-12-18T23:08:03.077Z,88.17
2022-12-18T23:10:36.933Z,88.45
2022-12-18T23:13:10.916Z,88.07
2022-12-18T23:15:47.936Z,88.82
2022-12-18T23:18:26.772Z,89.17
2022-12-18T23:20:57.964Z,88.66
2022-12-18T23:23:30.727Z,89.38
2022-12-18T23:26:08.164Z,88.97
2022-12-18T23:32:02.583Z,88.88
2022-12-18T23:34:45.948Z,90.15
2022-12-18T23:37:49.982Z,88.80
2022-12-18T23:40:10.149Z,90.60
2022-12-18T23:42:47.855Z,90.54
2022-12-18T23:45:28.148Z,90.58
2022-12-18T23:48:01.389Z,91.56
2022-12-18T23:50:44.194Z,92.00
2022-12-18T23:53:14.698Z,92.38
2022-12-18T23:55:45.997Z,92.70
2022-12-18T23:58:21.859Z,91.28
